Time;durP1;ratioP1;P1;durP2;ratioP2;P2;SDS_P1;SDS_P2;PMS_P1;PMS_P2;Temp;Humidity;BMP_temperature;BMP_pressure;BME280_temperature;BME280_humidity;BME280_pressure;Samples;Min_cycle;Max_cycle;Signal;HPM_P1;HPM_P2
2021/10/30 02:45:55;;;;;;;105.72;62.28;;;8.00;97.80;;;;;;5448512;24;20059;-79
2021/10/30 02:48:21;;;;;;;104.60;64.38;;;8.00;97.80;;;;;;4766257;30;20271;-79
2021/10/30 02:50:49;;;;;;;109.97;66.03;;;8.00;98.00;;;;;;4802832;29;20039;-81
2021/10/30 02:53:15;;;;;;;112.15;67.20;;;8.00;98.10;;;;;;4781118;30;20027;-78
2021/10/30 02:55:40;;;;;;;110.38;66.82;;;8.00;98.30;;;;;;4794825;29;20039;-81
2021/10/30 02:58:06;;;;;;;106.47;66.65;;;8.20;98.50;;;;;;4772129;30;20027;-80
2021/10/30 03:00:32;;;;;;;104.03;64.43;;;8.20;98.30;;;;;;4781815;30;20031;-79
2021/10/30 03:02:58;;;;;;;103.60;64.05;;;8.20;98.20;;;;;;4792572;29;20039;-80
2021/10/30 03:05:23;;;;;;;96.70;62.63;;;8.30;98.20;;;;;;4792802;29;20039;-79
2021/10/30 03:07:49;;;;;;;112.55;68.72;;;8.20;98.20;;;;;;4783767;29;20046;-80
2021/10/30 03:10:15;;;;;;;104.90;67.00;;;8.20;98.20;;;;;;4792476;29;20085;-81
2021/10/30 03:12:41;;;;;;;111.63;67.53;;;8.30;98.10;;;;;;4783769;29;20073;-79
2021/10/30 03:15:07;;;;;;;105.90;66.53;;;8.20;98.20;;;;;;4786346;30;20042;-80
2021/10/30 03:17:33;;;;;;;109.72;68.32;;;8.20;98.30;;;;;;4788330;29;20340;-80
2021/10/30 03:19:59;;;;;;;104.50;67.10;;;8.30;98.00;;;;;;4780093;30;20046;-79
2021/10/30 03:22:24;;;;;;;110.35;71.07;;;8.30;98.10;;;;;;4790665;29;20036;-81
2021/10/30 03:24:52;;;;;;;105.87;65.43;;;8.30;98.10;;;;;;4777726;30;20031;-79
2021/10/30 03:27:18;;;;;;;;;;;8.30;98.20;;;;;;4766141;30;20274;-79
2021/10/30 03:29:44;;;;;;;111.87;69.40;;;8.30;98.20;;;;;;4782108;29;19917;-80
2021/10/30 03:32:10;;;;;;;113.95;69.85;;;8.30;98.20;;;;;;4782340;29;20043;-80
2021/10/30 03:34:35;;;;;;;110.63;67.25;;;8.40;98.40;;;;;;4792459;29;20407;-80
2021/10/30 03:37:01;;;;;;;112.13;67.95;;;8.40;98.50;;;;;;4783027;29;20050;-80
2021/10/30 03:39:27;;;;;;;105.85;64.60;;;8.50;98.40;;;;;;4784901;29;20035;-79
2021/10/30 03:41:53;;;;;;;108.25;66.93;;;8.60;98.50;;;;;;4765444;30;20055;-80
2021/10/30 03:44:18;;;;;;;107.07;68.85;;;8.60;98.20;;;;;;4765390;30;20040;-79
2021/10/30 03:46:44;;;;;;;110.85;68.35;;;8.60;98.10;;;;;;4768079;30;20069;-79
2021/10/30 03:49:10;;;;;;;113.88;69.78;;;8.70;98.00;;;;;;4780062;29;20035;-81
2021/10/30 03:51:36;;;;;;;111.85;70.03;;;8.70;97.90;;;;;;4779426;29;20048;-79
2021/10/30 03:54:02;;;;;;;118.15;69.10;;;8.70;98.00;;;;;;4770845;29;20051;-79
2021/10/30 03:56:27;;;;;;;111.47;68.55;;;8.70;98.30;;;;;;4771057;30;20039;-80
2021/10/30 03:58:54;;;;;;;117.30;70.70;;;8.80;98.10;;;;;;4779758;29;20101;-80
2021/10/30 04:01:20;;;;;;;111.82;69.20;;;8.80;98.20;;;;;;4782799;29;20027;-80
2021/10/30 04:03:46;;;;;;;113.28;70.53;;;8.80;97.90;;;;;;4782778;30;20031;-80
2021/10/30 04:06:13;;;;;;;105.70;69.00;;;8.80;97.90;;;;;;4783070;29;20038;-79
2021/10/30 04:08:38;;;;;;;117.90;72.65;;;8.80;97.80;;;;;;4792443;29;20137;-81
2021/10/30 04:11:04;;;;;;;120.07;72.72;;;8.80;97.70;;;;;;4771006;30;20058;-80
2021/10/30 04:13:30;;;;;;;117.95;71.95;;;8.80;97.80;;;;;;4769911;30;20031;-81
2021/10/30 04:15:56;;;;;;;120.70;75.40;;;8.70;97.90;;;;;;4787229;29;20044;-79
2021/10/30 04:18:22;;;;;;;117.78;71.75;;;8.70;98.00;;;;;;4775542;30;20099;-78
2021/10/30 04:20:48;;;;;;;121.32;74.47;;;8.70;97.90;;;;;;4782423;29;20031;-80
2021/10/30 04:23:13;;;;;;;126.95;74.20;;;8.70;97.70;;;;;;4782975;29;20037;-79
2021/10/30 04:25:40;;;;;;;117.25;73.13;;;8.70;97.90;;;;;;4782447;29;20038;-80
2021/10/30 04:28:05;;;;;;;124.60;72.80;;;8.60;98.10;;;;;;4779924;30;20264;-80
2021/10/30 04:30:31;;;;;;;122.28;72.93;;;8.60;98.10;;;;;;4782502;29;20059;-80
2021/10/30 04:32:57;;;;;;;118.53;71.93;;;8.60;98.10;;;;;;4782345;29;20058;-80
2021/10/30 04:35:23;;;;;;;132.30;76.63;;;8.60;97.90;;;;;;4764513;30;20035;-79
2021/10/30 04:37:49;;;;;;;125.00;74.22;;;8.50;97.90;;;;;;4764820;30;20048;-79
2021/10/30 04:40:15;;;;;;;124.68;73.97;;;8.50;97.80;;;;;;4776622;30;20040;-79
2021/10/30 04:42:40;;;;;;;123.53;74.25;;;8.50;97.80;;;;;;4791639;30;20242;-79
2021/10/30 04:45:06;;;;;;;132.07;74.03;;;8.40;97.70;;;;;;4766845;30;20081;-79
2021/10/30 04:47:34;;;;;;;133.30;76.50;;;8.40;97.90;;;;;;4768026;29;20117;-79
2021/10/30 04:49:59;;;;;;;124.68;76.88;;;8.40;97.90;;;;;;4788932;29;20055;-79
2021/10/30 04:52:26;;;;;;;122.75;75.60;;;8.30;97.90;;;;;;4786153;29;20039;-79
2021/10/30 04:54:51;;;;;;;132.02;78.40;;;8.30;98.10;;;;;;4783999;30;20396;-81
2021/10/30 04:57:17;;;;;;;129.55;75.30;;;8.20;98.20;;;;;;4768111;30;20039;-80
2021/10/30 04:59:43;;;;;;;128.73;75.75;;;8.20;98.30;;;;;;4768214;30;20350;-80
2021/10/30 05:02:09;;;;;;;120.10;73.13;;;8.10;98.30;;;;;;4769410;30;20281;-80
2021/10/30 05:04:35;;;;;;;124.73;75.63;;;8.10;98.30;;;;;;4782882;30;20040;-81
2021/10/30 05:07:01;;;;;;;121.85;72.90;;;8.10;98.30;;;;;;4782825;30;20042;-80
2021/10/30 05:09:26;;;;;;;133.57;76.20;;;8.10;98.30;;;;;;4771883;30;20354;-80
2021/10/30 05:11:52;;;;;;;131.15;76.22;;;8.00;98.30;;;;;;4782635;29;20071;-79
2021/10/30 05:14:18;;;;;;;129.23;75.47;;;8.00;98.20;;;;;;4779681;30;20367;-80
2021/10/30 05:16:44;;;;;;;127.50;73.38;;;7.90;98.20;;;;;;4767686;30;20051;-80
2021/10/30 05:19:09;;;;;;;126.82;71.15;;;7.90;98.10;;;;;;4767812;30;20039;-80
2021/10/30 05:21:35;;;;;;;112.35;68.05;;;7.80;98.20;;;;;;4768231;30;20111;-80
2021/10/30 05:24:01;;;;;;;114.88;67.13;;;7.70;98.50;;;;;;4779816;30;20331;-80
2021/10/30 05:26:27;;;;;;;119.50;65.50;;;7.70;98.50;;;;;;4785822;30;20035;-79
2021/10/30 05:28:53;;;;;;;101.10;62.35;;;7.70;98.40;;;;;;4785415;29;20039;-81
2021/10/30 05:31:20;;;;;;;101.75;58.53;;;7.60;98.40;;;;;;4774047;29;20208;-79
2021/10/30 05:33:46;;;;;;;103.10;62.35;;;7.60;98.50;;;;;;4767805;30;20040;-80
2021/10/30 05:36:34;;;;;;;100.80;60.97;;;7.60;98.50;;;;;;4786021;29;20040;-80
2021/10/30 05:39:32;;;;;;;95.80;57.70;;;7.60;98.50;;;;;;4787237;30;20347;-80
2021/10/30 05:41:57;;;;;;;99.03;56.90;;;7.60;98.80;;;;;;4769750;30;20041;-79
2021/10/30 05:44:24;;;;;;;100.38;56.58;;;7.60;98.80;;;;;;4761311;30;20036;-79
2021/10/30 05:46:50;;;;;;;96.30;56.50;;;7.60;98.80;;;;;;4768478;30;20055;-80
2021/10/30 05:49:17;;;;;;;90.53;54.25;;;7.60;98.80;;;;;;4765986;30;20337;-80
2021/10/30 05:51:43;;;;;;;91.53;54.75;;;7.60;98.60;;;;;;4772226;30;20039;-80
2021/10/30 05:54:09;;;;;;;96.40;53.88;;;7.60;98.60;;;;;;4779013;30;20047;-80
2021/10/30 05:56:38;;;;;;;86.30;54.75;;;7.60;99.00;;;;;;4764796;30;20035;-80
2021/10/30 05:59:03;;;;;;;89.93;53.03;;;7.60;98.60;;;;;;4750664;30;20054;-80
2021/10/30 06:01:29;;;;;;;88.15;53.92;;;7.70;98.50;;;;;;4762520;30;20122;-80
2021/10/30 06:03:55;;;;;;;95.78;55.35;;;7.70;98.40;;;;;;4773374;30;20048;-79
2021/10/30 06:06:22;;;;;;;88.03;53.63;;;7.60;98.40;;;;;;4774774;30;20035;-79
2021/10/30 06:08:48;;;;;;;90.35;52.47;;;7.60;98.40;;;;;;4762648;30;20035;-80
2021/10/30 06:11:14;;;;;;;88.15;53.58;;;7.60;98.30;;;;;;4773050;30;20035;-79
2021/10/30 06:13:39;;;;;;;101.38;53.45;;;7.70;98.20;;;;;;4778070;30;20062;-79
2021/10/30 06:16:05;;;;;;;91.45;55.42;;;7.60;98.30;;;;;;4795206;29;20095;-80
2021/10/30 06:18:32;;;;;;;89.50;54.97;;;7.60;98.30;;;;;;4775458;30;20023;-80
2021/10/30 06:20:57;;;;;;;84.93;51.87;;;7.70;98.20;;;;;;4779240;30;20904;-79
2021/10/30 06:23:23;;;;;;;90.75;53.03;;;7.70;98.10;;;;;;4776300;30;20093;-80
2021/10/30 06:25:49;;;;;;;93.43;55.33;;;7.70;97.90;;;;;;4779324;30;20370;-80
2021/10/30 06:28:15;;;;;;;90.32;53.47;;;7.80;98.00;;;;;;4775830;29;20036;-79
2021/10/30 06:30:41;;;;;;;89.72;54.78;;;7.80;98.10;;;;;;4787934;29;20044;-80
2021/10/30 06:33:06;;;;;;;96.22;55.42;;;7.80;97.90;;;;;;4779812;30;20049;-80
2021/10/30 06:35:32;;;;;;;86.20;54.63;;;7.80;98.00;;;;;;4777697;30;20046;-80
2021/10/30 06:37:58;;;;;;;92.57;53.65;;;7.80;97.90;;;;;;4773991;29;20338;-80
2021/10/30 06:40:24;;;;;;;87.40;50.97;;;7.90;97.80;;;;;;4778879;29;20087;-80
2021/10/30 06:42:50;;;;;;;91.60;53.60;;;7.90;97.70;;;;;;4786194;29;20047;-81
2021/10/30 06:45:16;;;;;;;89.47;52.15;;;7.90;97.80;;;;;;4776931;30;20040;-80
2021/10/30 06:47:42;;;;;;;97.50;54.78;;;8.00;97.80;;;;;;4781569;30;20232;-79
2021/10/30 06:50:09;;;;;;;86.28;52.72;;;8.00;97.70;;;;;;4776913;29;20028;-80
2021/10/30 06:52:38;;;;;;;92.72;55.85;;;8.20;97.60;;;;;;4791794;29;20396;-80
2021/10/30 06:55:06;;;;;;;95.15;54.83;;;8.20;97.40;;;;;;4783980;30;20044;-80
2021/10/30 06:57:33;;;;;;;91.15;54.92;;;8.30;97.50;;;;;;4782453;29;20328;-81
2021/10/30 07:00:00;;;;;;;102.35;58.67;;;8.30;97.50;;;;;;4767001;30;20367;-80
2021/10/30 07:02:27;;;;;;;100.53;59.22;;;8.30;97.60;;;;;;4790517;29;20055;-81
2021/10/30 07:04:53;;;;;;;109.57;61.55;;;8.40;97.90;;;;;;4786331;29;20346;-80
2021/10/30 07:07:19;;;;;;;102.20;59.17;;;8.50;97.70;;;;;;4766859;30;20435;-81
2021/10/30 07:09:44;;;;;;;96.45;58.78;;;8.50;97.70;;;;;;4786202;29;20036;-80
2021/10/30 07:12:11;;;;;;;93.65;57.17;;;8.60;97.60;;;;;;4787056;29;20138;-80
2021/10/30 07:14:37;;;;;;;100.20;57.80;;;8.60;97.60;;;;;;4796840;29;20323;-81
2021/10/30 07:17:03;;;;;;;104.97;60.00;;;8.70;97.40;;;;;;4791874;29;20061;-79
2021/10/30 07:19:28;;;;;;;92.95;56.22;;;8.70;97.40;;;;;;4765640;30;20093;-80
2021/10/30 07:21:54;;;;;;;98.13;56.70;;;8.80;97.30;;;;;;4770771;29;20236;-80
2021/10/30 07:24:20;;;;;;;95.68;56.08;;;8.80;97.40;;;;;;4783096;30;20334;-80
2021/10/30 07:26:46;;;;;;;93.05;54.72;;;8.90;97.40;;;;;;4779881;29;20092;-80
2021/10/30 07:29:12;;;;;;;95.97;55.77;;;8.90;97.30;;;;;;4779098;29;20138;-80
2021/10/30 07:31:38;;;;;;;92.90;56.08;;;9.10;97.30;;;;;;4778914;29;20498;-78
2021/10/30 07:34:04;;;;;;;92.15;57.08;;;9.20;97.10;;;;;;4779119;29;20063;-81
2021/10/30 07:36:30;;;;;;;94.10;54.78;;;9.30;96.90;;;;;;4778890;29;20050;-81
2021/10/30 07:38:55;;;;;;;93.55;55.45;;;9.40;97.00;;;;;;4778974;29;20040;-81
2021/10/30 07:41:22;;;;;;;99.18;59.80;;;9.40;96.80;;;;;;4793420;29;20036;-80
2021/10/30 07:43:53;;;;;;;104.33;61.20;;;9.60;96.80;;;;;;4790762;29;20037;-81
2021/10/30 07:46:19;;;;;;;103.63;63.55;;;9.70;96.60;;;;;;4785463;29;20629;-79
2021/10/30 07:48:44;;;;;;;110.03;65.28;;;9.80;96.60;;;;;;4779026;30;20048;-79
2021/10/30 07:51:10;;;;;;;103.78;65.88;;;9.80;96.60;;;;;;4764179;30;20085;-80
2021/10/30 07:53:36;;;;;;;112.60;65.18;;;9.90;96.40;;;;;;4777524;30;20081;-80
2021/10/30 07:56:03;;;;;;;103.95;63.42;;;10.10;96.40;;;;;;4763071;30;20043;-81
2021/10/30 07:58:28;;;;;;;104.82;66.32;;;10.20;96.30;;;;;;4784793;29;20219;-80
2021/10/30 08:00:54;;;;;;;108.95;66.32;;;10.30;96.00;;;;;;4777874;29;20028;-81
2021/10/30 08:03:20;;;;;;;109.82;67.82;;;10.40;95.60;;;;;;4776320;29;20046;-80
2021/10/30 08:05:46;;;;;;;108.25;66.05;;;10.60;95.50;;;;;;4788131;30;20343;-80
2021/10/30 08:08:12;;;;;;;102.35;64.07;;;10.70;95.10;;;;;;4777133;29;20110;-79
2021/10/30 08:10:38;;;;;;;105.90;65.47;;;10.80;94.70;;;;;;4787665;29;20217;-79
2021/10/30 08:13:08;;;;;;;108.45;65.05;;;11.00;94.70;;;;;;4772707;29;20106;-80
2021/10/30 08:15:34;;;;;;;106.80;64.15;;;11.10;94.50;;;;;;4797165;29;20055;-78
2021/10/30 08:17:59;;;;;;;101.03;65.28;;;11.30;94.10;;;;;;4782545;29;20315;-81
2021/10/30 08:20:25;;;;;;;101.10;61.85;;;11.30;93.50;;;;;;4766268;29;20039;-80
2021/10/30 08:22:51;;;;;;;100.90;62.25;;;11.40;93.20;;;;;;4772193;30;20039;-80
2021/10/30 08:25:17;;;;;;;103.25;62.40;;;11.40;93.00;;;;;;4778407;29;20023;-80
2021/10/30 08:27:42;;;;;;;101.45;63.15;;;11.60;92.70;;;;;;4775253;30;20039;-79
2021/10/30 08:30:09;;;;;;;104.38;61.78;;;11.80;92.30;;;;;;4777914;30;20044;-79
2021/10/30 08:32:35;;;;;;;96.10;59.83;;;11.80;92.40;;;;;;4779063;29;20052;-80
2021/10/30 08:35:02;;;;;;;97.38;60.20;;;11.90;92.20;;;;;;4765797;30;20052;-80
2021/10/30 08:37:28;;;;;;;89.35;58.08;;;12.00;92.00;;;;;;4795564;29;20043;-80
2021/10/30 08:39:54;;;;;;;90.22;57.92;;;12.20;91.20;;;;;;4780571;29;20139;-81
2021/10/30 08:42:21;;;;;;;90.68;55.95;;;12.10;91.40;;;;;;4795178;29;20096;-79
2021/10/30 08:44:48;;;;;;;;;;;12.10;91.50;;;;;;4794362;29;20096;-79
2021/10/30 08:47:14;;;;;;;96.40;58.40;;;12.20;91.20;;;;;;4791584;29;19921;-80
2021/10/30 08:49:40;;;;;;;95.93;57.42;;;12.30;91.00;;;;;;4780911;29;20055;-80
2021/10/30 08:52:06;;;;;;;90.93;56.92;;;12.30;91.00;;;;;;4780964;29;20066;-80
2021/10/30 08:54:36;;;;;;;93.15;56.90;;;12.40;91.00;;;;;;4779716;29;20047;-79
2021/10/30 08:57:02;;;;;;;91.72;57.10;;;12.50;90.40;;;;;;4763601;30;20047;-80
2021/10/30 08:59:46;;;;;;;88.22;56.47;;;12.50;90.30;;;;;;4770571;30;20096;-80
2021/10/30 09:02:31;;;;;;;90.32;56.53;;;12.60;90.20;;;;;;4778452;29;20197;-80
2021/10/30 09:05:20;;;;;;;89.22;55.42;;;12.70;90.00;;;;;;4778139;29;20200;-80
2021/10/30 09:07:49;;;;;;;86.10;56.67;;;12.80;89.10;;;;;;4791881;29;20385;-80
2021/10/30 09:10:18;;;;;;;89.35;55.20;;;12.90;88.60;;;;;;4778317;29;20067;-79
2021/10/30 09:12:52;;;;;;;83.57;52.88;;;13.10;87.60;;;;;;4780679;29;20227;-80
2021/10/30 09:15:28;;;;;;;90.70;51.90;;;13.10;86.50;;;;;;4780455;29;20329;-80
2021/10/30 09:17:54;;;;;;;79.35;50.13;;;13.20;86.20;;;;;;4780440;29;20036;-80
2021/10/30 09:20:29;;;;;;;81.78;50.20;;;13.20;85.50;;;;;;4774933;30;20347;-80
2021/10/30 09:22:55;;;;;;;77.95;48.40;;;13.20;84.70;;;;;;4792280;29;20046;-79
2021/10/30 09:25:21;;;;;;;82.13;53.80;;;13.10;84.80;;;;;;4777827;30;20035;-80
2021/10/30 09:27:53;;;;;;;85.78;52.30;;;13.10;86.00;;;;;;4794819;29;20400;-80
2021/10/30 09:30:47;;;;;;;73.75;48.83;;;13.20;84.30;;;;;;4789666;29;20024;-79
2021/10/30 09:33:13;;;;;;;75.78;50.70;;;13.30;84.00;;;;;;4744318;30;20078;-80
2021/10/30 09:35:46;;;;;;;77.43;50.92;;;13.30;83.90;;;;;;4747663;30;20051;-79
2021/10/30 09:38:31;;;;;;;75.38;49.33;;;13.40;83.00;;;;;;4765095;30;20239;-79
2021/10/30 09:41:02;;;;;;;74.53;49.15;;;13.40;82.70;;;;;;4753207;30;20044;-80
2021/10/30 09:43:29;;;;;;;79.28;51.45;;;13.40;82.30;;;;;;4753441;30;20137;-81
2021/10/30 09:46:02;;;;;;;79.43;51.75;;;13.40;82.60;;;;;;4751571;30;20059;-80
2021/10/30 09:48:31;;;;;;;81.13;49.95;;;13.30;82.10;;;;;;4774936;30;20236;-80
2021/10/30 09:51:00;;;;;;;85.28;54.65;;;13.30;82.70;;;;;;4750789;30;20058;-80
2021/10/30 09:53:34;;;;;;;87.00;52.72;;;13.50;82.90;;;;;;4763180;30;20044;-81
2021/10/30 09:56:04;;;;;;;76.05;51.28;;;13.60;81.30;;;;;;4763991;30;20318;-81
2021/10/30 09:58:47;;;;;;;82.47;50.50;;;13.60;81.30;;;;;;4765407;30;20043;-82
2021/10/30 10:01:18;;;;;;;85.00;48.60;;;13.70;81.00;;;;;;4753727;30;20047;-80
2021/10/30 10:03:48;;;;;;;75.95;49.38;;;13.70;80.10;;;;;;4764453;30;20119;-80
2021/10/30 10:06:17;;;;;;;84.30;53.80;;;13.70;80.30;;;;;;4764805;30;20098;-82
2021/10/30 10:08:46;;;;;;;80.55;50.10;;;13.70;80.90;;;;;;4747971;30;20074;-82
2021/10/30 10:11:17;;;;;;;78.15;51.45;;;13.70;80.10;;;;;;4765426;30;20043;-82
2021/10/30 10:13:48;;;;;;;82.75;53.05;;;13.90;79.20;;;;;;4778128;30;20054;-81
2021/10/30 10:16:18;;;;;;;85.50;52.55;;;13.80;79.20;;;;;;4777146;29;20085;-81
2021/10/30 10:18:44;;;;;;;81.03;50.35;;;13.80;80.00;;;;;;4775157;30;20359;-81
2021/10/30 10:21:18;;;;;;;81.63;54.23;;;13.90;79.30;;;;;;4775036;30;20135;-82
2021/10/30 10:23:44;;;;;;;76.70;49.60;;;13.90;79.10;;;;;;4780793;29;20086;-81
2021/10/30 10:26:11;;;;;;;76.57;51.20;;;14.00;78.20;;;;;;4775257;30;20040;-82
2021/10/30 10:28:37;;;;;;;75.03;51.08;;;14.00;78.30;;;;;;4780175;29;20041;-82
2021/10/30 10:31:12;;;;;;;76.78;45.78;;;14.10;78.80;;;;;;4786851;30;20042;-81
2021/10/30 10:33:40;;;;;;;77.28;48.28;;;14.20;77.50;;;;;;4797187;29;20054;-82
2021/10/30 10:36:21;;;;;;;;;;;14.30;77.20;;;;;;4775315;29;20050;-83
2021/10/30 10:38:56;;;;;;;82.35;48.10;;;14.40;76.50;;;;;;4780608;29;19910;-82
2021/10/30 10:41:37;;;;;;;83.05;47.60;;;14.40;75.70;;;;;;4784769;29;20035;-81
2021/10/30 10:44:07;;;;;;;77.57;51.65;;;14.30;75.30;;;;;;4789109;29;20032;-81
2021/10/30 10:46:40;;;;;;;79.57;49.40;;;14.30;75.60;;;;;;4780956;30;20055;-82
2021/10/30 10:52:19;;;;;;;74.40;48.25;;;14.40;75.90;;;;;;4790833;29;20242;-81
2021/10/30 10:55:02;;;;;;;68.40;44.45;;;14.40;76.00;;;;;;4786096;30;20035;-81
2021/10/30 10:57:35;;;;;;;74.40;46.28;;;14.60;75.30;;;;;;4779991;29;20039;-81
2021/10/30 11:00:05;;;;;;;69.78;47.05;;;14.60;74.00;;;;;;4794802;29;20346;-81
2021/10/30 11:02:53;;;;;;;75.90;48.47;;;14.60;74.40;;;;;;4785326;29;20095;-81
2021/10/30 11:05:22;;;;;;;69.70;48.22;;;14.60;74.30;;;;;;4785654;29;20055;-82
2021/10/30 11:07:50;;;;;;;69.82;48.25;;;14.70;74.00;;;;;;4779870;29;20048;-82
2021/10/30 11:10:19;;;;;;;67.60;47.47;;;14.70;73.40;;;;;;4783777;29;20106;-82
2021/10/30 11:13:00;;;;;;;67.93;47.83;;;14.70;73.50;;;;;;4779407;30;20209;-82
2021/10/30 11:15:43;;;;;;;69.43;49.90;;;14.70;73.00;;;;;;4792300;29;20281;-82
2021/10/30 11:21:26;;;;;;;71.47;49.63;;;14.80;73.50;;;;;;4796824;29;20035;-80
2021/10/30 11:23:54;;;;;;;67.97;45.22;;;14.90;73.20;;;;;;4748714;30;20364;-80
2021/10/30 11:26:27;;;;;;;60.22;41.10;;;15.00;72.60;;;;;;4748324;30;20114;-83
2021/10/30 11:29:01;;;;;;;61.55;41.10;;;15.10;71.80;;;;;;4744189;30;20056;-81
2021/10/30 11:31:30;;;;;;;69.03;45.83;;;15.10;71.10;;;;;;4763430;30;20035;-82
2021/10/30 11:33:56;;;;;;;59.10;42.03;;;15.00;71.60;;;;;;4734480;30;20063;-81
2021/10/30 11:36:22;;;;;;;67.22;41.50;;;14.90;71.50;;;;;;4748399;30;20036;-82
2021/10/30 11:38:53;;;;;;;65.20;43.05;;;14.70;71.70;;;;;;4746236;30;20032;-82
2021/10/30 11:41:24;;;;;;;59.88;41.10;;;14.80;72.70;;;;;;4757806;30;20747;-80
2021/10/30 11:43:57;;;;;;;56.25;40.00;;;14.80;72.10;;;;;;4762607;30;20217;-82
2021/10/30 11:46:23;;;;;;;65.55;41.03;;;14.80;70.70;;;;;;4756469;30;20120;-83
2021/10/30 11:48:56;;;;;;;61.28;40.03;;;14.80;71.60;;;;;;4717471;30;20052;-80
2021/10/30 11:51:29;;;;;;;61.65;39.45;;;15.00;71.50;;;;;;4729087;30;20040;-81
2021/10/30 11:53:55;;;;;;;61.92;38.40;;;15.10;70.60;;;;;;4736786;30;20056;-81
2021/10/30 11:56:26;;;;;;;50.95;38.75;;;15.10;70.00;;;;;;4736875;30;20053;-82
2021/10/30 11:58:57;;;;;;;65.32;40.05;;;15.10;69.80;;;;;;4727996;30;20053;-82
2021/10/30 12:01:33;;;;;;;60.28;40.03;;;15.00;69.50;;;;;;4762966;30;20076;-82
2021/10/30 12:04:20;;;;;;;60.65;39.17;;;15.00;69.70;;;;;;4777541;30;20366;-82
2021/10/30 12:06:57;;;;;;;62.45;38.85;;;15.00;69.90;;;;;;4745490;30;20174;-80
2021/10/30 12:09:32;;;;;;;57.88;39.97;;;15.10;70.10;;;;;;4741926;30;20119;-82
2021/10/30 12:12:06;;;;;;;56.38;39.97;;;15.20;69.60;;;;;;4747072;30;20132;-81
2021/10/30 12:14:34;;;;;;;65.00;39.90;;;15.10;69.40;;;;;;4755151;30;20396;-80
2021/10/30 12:17:06;;;;;;;65.93;39.90;;;15.10;69.50;;;;;;4747738;30;20020;-82
2021/10/30 12:19:34;;;;;;;69.30;37.63;;;15.00;70.50;;;;;;4759200;30;20107;-82
2021/10/30 12:22:08;;;;;;;51.55;36.78;;;15.10;69.70;;;;;;4777390;29;20039;-82
2021/10/30 12:24:35;;;;;;;58.00;36.47;;;15.10;69.80;;;;;;4777985;29;20351;-82
2021/10/30 12:27:04;;;;;;;;;;;15.20;69.50;;;;;;4793293;29;20050;-83
2021/10/30 12:29:41;;;;;;;53.80;36.20;;;15.10;69.20;;;;;;4790302;29;19909;-82
2021/10/30 12:32:09;;;;;;;51.03;35.92;;;15.10;69.10;;;;;;4790845;30;20141;-82
2021/10/30 12:34:41;;;;;;;52.17;36.80;;;15.10;68.80;;;;;;4783385;29;20235;-81
2021/10/30 12:37:10;;;;;;;51.80;37.10;;;15.00;70.30;;;;;;4785771;30;20327;-82
2021/10/30 12:39:37;;;;;;;53.42;34.13;;;15.10;69.00;;;;;;4790951;29;20031;-80
2021/10/30 12:42:09;;;;;;;55.40;36.42;;;15.10;68.80;;;;;;4786920;30;20446;-81
2021/10/30 12:44:36;;;;;;;54.47;36.75;;;15.10;69.20;;;;;;4785853;29;20058;-81
2021/10/30 12:47:14;;;;;;;54.25;35.60;;;15.20;68.50;;;;;;4781560;29;20073;-81
2021/10/30 12:49:45;;;;;;;61.55;37.45;;;15.30;68.30;;;;;;4777729;30;20031;-80
2021/10/30 12:52:14;;;;;;;58.83;37.50;;;15.20;68.20;;;;;;4783544;29;20058;-80
2021/10/30 12:54:56;;;;;;;63.97;38.80;;;15.10;68.40;;;;;;4775178;29;20039;-81
2021/10/30 12:57:28;;;;;;;56.33;37.83;;;15.10;68.80;;;;;;4807669;29;20044;-80
2021/10/30 13:00:24;;;;;;;62.13;38.78;;;15.10;68.70;;;;;;4787069;29;20035;-81
2021/10/30 13:02:50;;;;;;;61.40;39.08;;;15.10;69.40;;;;;;4761779;30;20051;-81
2021/10/30 13:05:20;;;;;;;57.42;37.78;;;15.10;69.50;;;;;;4762144;30;20043;-81
2021/10/30 13:07:58;;;;;;;60.58;38.70;;;15.20;69.20;;;;;;4759200;30;20115;-82
2021/10/30 13:10:28;;;;;;;58.03;38.17;;;15.20;68.80;;;;;;4756321;30;20319;-80
2021/10/30 13:12:55;;;;;;;56.30;37.28;;;15.10;68.80;;;;;;4780228;30;20396;-81
2021/10/30 13:15:22;;;;;;;62.25;38.17;;;15.20;68.80;;;;;;4753889;30;20048;-81
2021/10/30 13:17:48;;;;;;;55.35;36.55;;;15.10;69.30;;;;;;4741868;30;20201;-81
2021/10/30 13:20:14;;;;;;;62.78;37.60;;;15.10;69.20;;;;;;4748277;30;20068;-82
2021/10/30 13:22:40;;;;;;;53.83;38.40;;;15.30;68.70;;;;;;4732842;30;20359;-81
2021/10/30 13:25:08;;;;;;;59.83;38.17;;;15.30;68.30;;;;;;4765022;30;20273;-81
2021/10/30 13:27:35;;;;;;;54.97;38.33;;;15.30;68.50;;;;;;4720055;30;20028;-82
2021/10/30 13:30:01;;;;;;;66.63;39.55;;;15.30;68.10;;;;;;4746430;30;20570;-81
2021/10/30 13:32:27;;;;;;;56.17;39.92;;;15.20;68.70;;;;;;4750297;30;20071;-82
2021/10/30 13:34:53;;;;;;;58.80;39.50;;;15.10;68.70;;;;;;4736015;30;20062;-82
2021/10/30 13:37:18;;;;;;;56.88;38.60;;;15.10;69.00;;;;;;4716684;30;20040;-82
2021/10/30 13:39:44;;;;;;;62.50;40.30;;;15.10;68.80;;;;;;4781997;30;20043;-82
2021/10/30 13:42:10;;;;;;;60.42;37.97;;;15.10;69.00;;;;;;4780713;29;20060;-81
2021/10/30 13:44:36;;;;;;;64.53;41.30;;;15.10;69.40;;;;;;4780466;30;20035;-80
2021/10/30 13:47:02;;;;;;;52.05;37.95;;;15.00;70.20;;;;;;4791189;29;20097;-81
2021/10/30 13:49:28;;;;;;;60.42;38.50;;;14.90;69.70;;;;;;4798194;29;20090;-81
2021/10/30 13:51:55;;;;;;;62.47;41.78;;;14.90;69.90;;;;;;4780263;29;20035;-81
2021/10/30 13:54:22;;;;;;;60.13;41.45;;;14.90;70.10;;;;;;4791375;29;20039;-81
2021/10/30 13:56:49;;;;;;;63.92;42.67;;;14.90;70.80;;;;;;4791736;29;20227;-82
2021/10/30 13:59:15;;;;;;;60.43;42.03;;;14.90;71.10;;;;;;4788371;29;20320;-82
2021/10/30 14:01:41;;;;;;;60.35;42.40;;;15.00;71.70;;;;;;4787065;29;20044;-82
2021/10/30 14:04:07;;;;;;;67.43;45.50;;;14.90;72.00;;;;;;4780555;30;20031;-83
2021/10/30 14:06:34;;;;;;;64.28;43.38;;;15.00;72.30;;;;;;4779665;29;20093;-82
2021/10/30 14:09:02;;;;;;;67.83;45.20;;;14.90;72.80;;;;;;4776664;30;20238;-82
2021/10/30 14:11:28;;;;;;;67.40;47.38;;;14.90;72.90;;;;;;4784478;30;20035;-82
2021/10/30 14:13:55;;;;;;;71.05;44.45;;;14.80;73.10;;;;;;4776954;29;20107;-80
2021/10/30 14:16:21;;;;;;;69.38;45.22;;;14.80;73.40;;;;;;4781790;30;20043;-82
2021/10/30 14:18:48;;;;;;;72.50;46.58;;;14.80;73.90;;;;;;4785761;29;20051;-82
2021/10/30 14:21:14;;;;;;;63.67;44.60;;;14.80;73.70;;;;;;4787564;29;20028;-81
2021/10/30 14:23:41;;;;;;;70.60;43.63;;;14.70;73.70;;;;;;4787069;29;20058;-80
2021/10/30 14:26:08;;;;;;;77.43;47.67;;;14.70;74.00;;;;;;4786487;29;20032;-81
2021/10/30 14:28:35;;;;;;;;;;;14.70;74.10;;;;;;4779892;30;20048;-82
2021/10/30 14:31:02;;;;;;;62.92;44.17;;;14.60;74.60;;;;;;4785913;29;19988;-82
2021/10/30 14:33:31;;;;;;;66.45;43.78;;;14.60;74.60;;;;;;4786272;30;20044;-81
2021/10/30 14:35:58;;;;;;;71.78;47.60;;;14.50;74.90;;;;;;4765088;30;20118;-79
2021/10/30 14:38:27;;;;;;;69.53;44.08;;;14.60;74.90;;;;;;4783110;29;20051;-81
2021/10/30 14:40:54;;;;;;;73.60;44.55;;;14.50;75.10;;;;;;4815116;29;20035;-81
2021/10/30 14:43:21;;;;;;;66.28;44.75;;;14.50;75.00;;;;;;4791463;29;20093;-81
2021/10/30 14:45:47;;;;;;;65.65;42.97;;;14.40;75.00;;;;;;4763497;29;20303;-80
2021/10/30 14:48:13;;;;;;;65.25;44.05;;;14.40;75.00;;;;;;4783865;29;20047;-80
2021/10/30 14:50:40;;;;;;;66.80;44.45;;;14.40;75.10;;;;;;4795409;29;20121;-80
2021/10/30 14:53:09;;;;;;;;;;;14.40;75.00;;;;;;4777079;29;20044;-81
2021/10/30 14:55:38;;;;;;;68.20;43.40;;;14.30;75.00;;;;;;4795686;29;20171;-80
2021/10/30 14:58:04;;;;;;;65.60;43.45;;;14.30;75.40;;;;;;4782486;29;20066;-81
2021/10/30 15:00:30;;;;;;;68.30;44.40;;;14.30;75.30;;;;;;4788351;29;20048;-81
2021/10/30 15:02:57;;;;;;;63.83;43.58;;;14.30;75.70;;;;;;4797117;29;20235;-81
2021/10/30 15:05:23;;;;;;;61.33;43.70;;;14.20;75.90;;;;;;4796828;29;20039;-79
2021/10/30 15:07:49;;;;;;;63.13;43.17;;;14.20;76.00;;;;;;4794619;29;20258;-81
2021/10/30 15:10:15;;;;;;;67.88;43.75;;;14.10;75.90;;;;;;4777089;29;20042;-81
2021/10/30 15:12:42;;;;;;;68.07;43.85;;;14.00;76.30;;;;;;4779580;29;20269;-81
2021/10/30 15:15:09;;;;;;;69.78;47.17;;;14.00;76.50;;;;;;4779064;29;20054;-80
2021/10/30 15:17:35;;;;;;;78.07;45.70;;;13.90;77.10;;;;;;4783793;29;20051;-80
2021/10/30 15:20:03;;;;;;;66.35;45.20;;;13.90;77.90;;;;;;4781269;29;20044;-81
2021/10/30 15:22:29;;;;;;;63.13;44.25;;;13.80;77.70;;;;;;4796762;29;20043;-79
2021/10/30 15:24:55;;;;;;;72.50;46.05;;;13.80;78.00;;;;;;4785670;29;20085;-80
2021/10/30 15:27:21;;;;;;;73.07;45.95;;;13.70;78.40;;;;;;4778497;29;20034;-81